Terminal Aerodrome Forecast
Issued by NWS

Home | Current Version | Previous Version | Text Only | Print | Product List | Glossary On
Versions: 1 2 3 4 5 6 7 8 9 10 11 12 13 14 15
000
FTUS42 KILM 020400 AAA
TAFCRE
TAF AMD
KCRE 020404Z 0204/0224 16003KT P6SM SKC
      TEMPO 0204/0207 3SM BR
     FM020700 00000KT 4SM BR FEW003
     FM021400 VRB05KT P6SM FEW040=

USA.gov is the U.S. government's official web portal to all federal, state and local government web resources and services.